Time;durP1;ratioP1;P1;durP2;ratioP2;P2;SDS_P1;SDS_P2;PMS_P1;PMS_P2;Temp;Humidity;BMP_temperature;BMP_pressure;BME280_temperature;BME280_humidity;BME280_pressure;Samples;Min_cycle;Max_cycle;Signal;HPM_P1;HPM_P2
2022/05/11 00:00:55;;;;;;;5.30;4.57;;;19.10;52.20;;;;;;5019812;28;20229;-87
2022/05/11 00:03:22;;;;;;;5.93;4.90;;;19.00;52.00;;;;;;5035142;28;20185;-86
2022/05/11 00:05:48;;;;;;;7.65;4.80;;;19.00;52.20;;;;;;5018870;28;20182;-85
2022/05/11 00:08:14;;;;;;;6.28;4.43;;;19.10;52.20;;;;;;5035256;28;20232;-87
2022/05/11 00:10:40;;;;;;;6.65;4.70;;;19.00;52.10;;;;;;5019561;28;20243;-86
2022/05/11 00:13:05;;;;;;;5.43;4.82;;;19.10;52.20;;;;;;5036123;28;20158;-87
2022/05/11 00:15:31;;;;;;;7.35;4.50;;;19.10;52.20;;;;;;5019996;28;20158;-86
2022/05/11 00:17:57;;;;;;;5.93;4.95;;;19.10;52.10;;;;;;5019574;28;20158;-86
2022/05/11 00:20:24;;;;;;;5.78;4.80;;;19.00;52.10;;;;;;5019930;28;20208;-86
2022/05/11 00:22:54;;;;;;;5.85;4.90;;;19.10;52.10;;;;;;5019221;28;20211;-86
2022/05/11 00:25:20;;;;;;;5.25;4.75;;;19.10;52.30;;;;;;5036047;28;20155;-85
2022/05/11 00:27:46;;;;;;;7.28;4.82;;;19.00;52.10;;;;;;5019195;28;20168;-87
2022/05/11 00:30:11;;;;;;;5.47;4.90;;;19.10;52.20;;;;;;5053453;28;20182;-86
2022/05/11 00:32:37;;;;;;;5.80;5.00;;;19.10;52.20;;;;;;5035818;28;20154;-86
2022/05/11 00:35:04;;;;;;;5.65;4.90;;;19.10;52.30;;;;;;5035859;28;20158;-86
2022/05/11 00:37:29;;;;;;;6.32;4.68;;;19.00;52.10;;;;;;5035716;28;20197;-85
2022/05/11 00:39:56;;;;;;;5.40;4.70;;;19.10;52.10;;;;;;5035792;28;20251;-86
2022/05/11 00:42:22;;;;;;;7.47;4.80;;;19.10;52.20;;;;;;5035589;28;20162;-86
2022/05/11 00:44:47;;;;;;;6.45;4.60;;;19.10;52.10;;;;;;5035685;28;20172;-86
2022/05/11 00:47:26;;;;;;;6.20;4.70;;;19.10;52.10;;;;;;5035812;28;20212;-87
2022/05/11 00:49:55;;;;;;;6.30;4.95;;;19.10;52.10;;;;;;5019482;28;20687;-86
2022/05/11 00:52:25;;;;;;;6.03;4.82;;;19.10;52.10;;;;;;5019273;28;20559;-86
2022/05/11 00:55:00;;;;;;;6.32;5.00;;;19.10;52.10;;;;;;5035630;28;20515;-87
2022/05/11 00:57:30;;;;;;;6.85;5.53;;;19.00;52.10;;;;;;5019148;28;20164;-86
2022/05/11 00:59:57;;;;;;;9.48;4.88;;;19.10;52.20;;;;;;5035694;28;20158;-86
2022/05/11 01:02:23;;;;;;;5.53;4.82;;;19.00;52.10;;;;;;5034897;28;20189;-85
2022/05/11 01:04:54;;;;;;;5.70;4.72;;;19.00;52.00;;;;;;5018798;28;20224;-86
2022/05/11 01:07:21;;;;;;;5.57;5.07;;;19.10;52.10;;;;;;5017996;28;20185;-86
2022/05/11 01:09:48;;;;;;;5.32;4.47;;;19.00;52.10;;;;;;5018028;28;20347;-86
2022/05/11 01:12:17;;;;;;;7.25;4.78;;;19.00;52.10;;;;;;5017882;28;20189;-85
2022/05/11 01:14:46;;;;;;;6.28;5.13;;;19.00;52.30;;;;;;5018643;28;20616;-87
2022/05/11 01:17:12;;;;;;;6.00;4.70;;;19.00;52.30;;;;;;5018045;28;20178;-87
2022/05/11 01:19:41;;;;;;;5.18;4.45;;;19.00;52.10;;;;;;5017639;28;20182;-87
2022/05/11 01:22:15;;;;;;;5.88;4.53;;;19.00;52.20;;;;;;5034499;28;20182;-86
2022/05/11 01:24:43;;;;;;;5.68;4.90;;;19.00;52.10;;;;;;5037482;28;20256;-86
2022/05/11 01:27:29;;;;;;;5.95;4.60;;;19.00;52.20;;;;;;5038506;28;20200;-87
2022/05/11 01:30:05;;;;;;;5.78;5.07;;;19.00;52.30;;;;;;5039245;28;20189;-86
2022/05/11 01:32:35;;;;;;;6.65;5.38;;;19.00;52.20;;;;;;5039480;28;20169;-87
2022/05/11 01:35:33;;;;;;;6.53;5.07;;;19.00;52.20;;;;;;5038543;28;20182;-86
2022/05/11 01:38:13;;;;;;;5.88;4.50;;;19.00;52.30;;;;;;5057073;28;20626;-86
2022/05/11 01:40:40;;;;;;;5.85;4.80;;;19.00;52.30;;;;;;5022612;28;20185;-86
2022/05/11 01:43:07;;;;;;;6.55;4.80;;;19.00;52.10;;;;;;5021681;28;20184;-86
2022/05/11 01:45:33;;;;;;;5.85;5.03;;;19.00;52.30;;;;;;5021565;28;20609;-86
2022/05/11 01:47:59;;;;;;;5.20;4.53;;;19.00;52.30;;;;;;5038850;28;20200;-87
2022/05/11 01:50:26;;;;;;;5.40;4.82;;;19.00;52.30;;;;;;5038595;28;20552;-86
2022/05/11 01:52:52;;;;;;;5.32;4.78;;;19.00;52.30;;;;;;5038819;28;20158;-86
2022/05/11 01:55:18;;;;;;;5.47;4.63;;;19.00;52.20;;;;;;5038623;28;20520;-87
2022/05/11 01:57:44;;;;;;;6.25;4.57;;;19.00;52.20;;;;;;5022100;28;20192;-85
2022/05/11 02:00:10;;;;;;;6.53;4.65;;;19.00;52.30;;;;;;5038652;28;20212;-85
2022/05/11 02:02:37;;;;;;;6.07;5.03;;;19.00;52.40;;;;;;5038341;28;20696;-86
2022/05/11 02:10:23;;;;;;;5.68;4.82;;;18.90;52.10;;;;;;5055925;28;20222;-86
2022/05/11 02:12:48;;;;;;;5.40;4.90;;;19.00;52.30;;;;;;5022379;28;20162;-87
2022/05/11 02:15:14;;;;;;;5.82;4.97;;;19.00;52.10;;;;;;5022313;28;20170;-85
2022/05/11 02:17:41;;;;;;;5.72;4.68;;;19.00;52.30;;;;;;5021783;28;20189;-86
2022/05/11 02:20:08;;;;;;;5.68;4.93;;;18.90;52.20;;;;;;5021933;28;20184;-86
2022/05/11 02:22:33;;;;;;;5.30;4.60;;;19.00;52.20;;;;;;5038258;28;20165;-85
2022/05/11 02:24:59;;;;;;;5.85;4.90;;;19.00;52.40;;;;;;5021487;28;20520;-86
2022/05/11 02:27:26;;;;;;;6.32;4.68;;;18.90;52.20;;;;;;5021450;28;20268;-86
2022/05/11 02:29:53;;;;;;;7.22;4.93;;;18.90;52.30;;;;;;5037010;28;20672;-87
2022/05/11 02:32:19;;;;;;;5.60;4.90;;;19.00;52.40;;;;;;5037296;28;20185;-86
2022/05/11 02:37:22;;;;;;;6.35;4.72;;;18.90;52.40;;;;;;5038520;28;20197;-86
2022/05/11 02:39:48;;;;;;;5.63;4.70;;;19.00;52.40;;;;;;5037859;28;20197;-85
2022/05/11 02:42:15;;;;;;;5.85;5.10;;;19.00;52.30;;;;;;5021291;28;20261;-85
2022/05/11 02:44:41;;;;;;;5.78;4.60;;;19.00;52.40;;;;;;5037853;28;20166;-86
2022/05/11 02:47:06;;;;;;;5.47;4.50;;;19.00;52.30;;;;;;5038052;28;20158;-87
2022/05/11 02:49:32;;;;;;;7.50;4.63;;;19.00;52.30;;;;;;5037633;28;20252;-87
2022/05/11 02:51:58;;;;;;;5.88;4.53;;;18.90;52.20;;;;;;5037743;28;20609;-86
2022/05/11 02:54:24;;;;;;;5.45;4.47;;;18.90;52.30;;;;;;5021155;28;20170;-87
2022/05/11 02:56:49;;;;;;;5.93;4.50;;;18.90;52.40;;;;;;5021434;28;20173;-85
2022/05/11 02:59:16;;;;;;;5.45;4.40;;;18.90;52.30;;;;;;5020930;28;20181;-86
2022/05/11 03:01:45;;;;;;;6.40;4.93;;;19.00;52.30;;;;;;5020720;28;20204;-87
2022/05/11 03:04:15;;;;;;;7.25;4.72;;;19.00;52.40;;;;;;5020370;28;20197;-86
2022/05/11 03:06:42;;;;;;;6.15;4.70;;;19.00;52.20;;;;;;5036504;28;20182;-86
2022/05/11 03:09:08;;;;;;;5.55;4.85;;;19.00;52.30;;;;;;5020753;28;20225;-86
2022/05/11 03:11:34;;;;;;;6.10;4.80;;;19.00;52.30;;;;;;5037232;28;20196;-85
2022/05/11 03:14:00;;;;;;;5.60;4.55;;;19.00;52.30;;;;;;5037125;28;20169;-86
2022/05/11 03:16:26;;;;;;;4.95;4.22;;;19.00;52.10;;;;;;5037327;28;20170;-87
2022/05/11 03:18:52;;;;;;;4.88;4.18;;;19.00;52.30;;;;;;5055282;28;20268;-86
2022/05/11 03:21:24;;;;;;;6.03;4.35;;;18.90;52.20;;;;;;5020580;28;20174;-86
2022/05/11 03:23:54;;;;;;;5.15;4.45;;;18.90;52.30;;;;;;5036925;28;20154;-87
2022/05/11 03:26:23;;;;;;;5.90;4.80;;;18.90;52.40;;;;;;5036480;28;20190;-86
2022/05/11 03:28:52;;;;;;;5.45;4.95;;;18.90;52.40;;;;;;5036169;28;20205;-86
2022/05/11 03:31:20;;;;;;;5.80;4.50;;;18.90;52.40;;;;;;5019431;28;20300;-86
2022/05/11 03:36:28;;;;;;;5.38;4.65;;;18.90;52.40;;;;;;5037775;28;20185;-87
2022/05/11 03:38:56;;;;;;;5.05;4.50;;;18.90;52.30;;;;;;5019230;28;20548;-85
2022/05/11 03:41:25;;;;;;;6.00;4.80;;;18.90;52.50;;;;;;5036286;28;20182;-86
2022/05/11 03:43:53;;;;;;;5.25;4.75;;;18.90;52.40;;;;;;5036079;28;20199;-86
2022/05/11 03:46:21;;;;;;;5.00;4.50;;;18.90;52.40;;;;;;5035351;28;20178;-85
2022/05/11 03:48:49;;;;;;;6.00;4.75;;;18.90;52.30;;;;;;5036166;28;20637;-86
2022/05/11 03:51:17;;;;;;;6.57;4.90;;;19.00;52.40;;;;;;5019314;28;20231;-86
2022/05/11 03:53:45;;;;;;;6.25;4.93;;;18.90;52.40;;;;;;5019382;28;20602;-86
2022/05/11 03:56:13;;;;;;;5.03;4.40;;;19.00;52.40;;;;;;5035952;28;20189;-86
2022/05/11 03:58:40;;;;;;;5.20;4.70;;;18.90;52.30;;;;;;5018985;28;20214;-86
2022/05/11 04:01:08;;;;;;;6.57;4.60;;;18.90;52.30;;;;;;5035607;28;20181;-86
2022/05/11 04:03:35;;;;;;;6.13;4.53;;;19.00;52.30;;;;;;5019163;28;20190;-86
2022/05/11 04:06:02;;;;;;;5.35;4.75;;;18.90;52.20;;;;;;5019193;28;20189;-86
2022/05/11 04:08:28;;;;;;;5.80;4.90;;;18.90;52.40;;;;;;5018873;28;20280;-85
2022/05/11 04:10:55;;;;;;;6.50;4.80;;;18.90;52.30;;;;;;5019586;28;20186;-86
2022/05/11 04:13:22;;;;;;;5.55;4.60;;;18.90;52.30;;;;;;5002363;28;20277;-85
2022/05/11 04:15:49;;;;;;;5.85;5.03;;;18.90;52.40;;;;;;5035291;28;20644;-86
2022/05/11 04:18:17;;;;;;;5.18;4.47;;;18.90;52.30;;;;;;5019789;28;20625;-86
2022/05/11 04:20:45;;;;;;;5.43;4.32;;;18.90;52.30;;;;;;5034990;28;20232;-86
2022/05/11 04:23:12;;;;;;;5.15;4.30;;;18.90;52.30;;;;;;5035570;28;20182;-86
2022/05/11 04:25:39;;;;;;;5.28;4.57;;;18.90;52.20;;;;;;5035163;28;20188;-85
2022/05/11 04:28:11;;;;;;;6.53;4.63;;;18.90;52.40;;;;;;5035288;28;20255;-86
2022/05/11 04:30:37;;;;;;;5.20;4.70;;;18.90;52.40;;;;;;5035072;28;20251;-86
2022/05/11 04:33:02;;;;;;;5.38;4.43;;;18.80;52.50;;;;;;5035874;28;20241;-86
2022/05/11 04:35:30;;;;;;;5.30;4.80;;;18.80;52.50;;;;;;5035963;28;20249;-87
2022/05/11 04:37:59;;;;;;;5.07;4.55;;;18.80;52.50;;;;;;5035971;28;20174;-85
2022/05/11 04:40:26;;;;;;;5.22;4.38;;;18.80;52.60;;;;;;5035151;28;20192;-86
2022/05/11 04:42:53;;;;;;;5.05;4.28;;;18.80;52.60;;;;;;5034998;28;20190;-86
2022/05/11 04:45:20;;;;;;;5.75;4.63;;;18.80;52.60;;;;;;5034677;28;20193;-85
2022/05/11 04:47:46;;;;;;;5.20;4.53;;;18.70;52.60;;;;;;5034764;28;20186;-86
2022/05/11 04:50:14;;;;;;;5.25;4.75;;;18.80;52.70;;;;;;5018939;28;20288;-86
2022/05/11 04:52:41;;;;;;;5.55;4.68;;;18.80;52.70;;;;;;5018134;28;20178;-86
2022/05/11 04:55:09;;;;;;;5.03;4.53;;;18.80;52.60;;;;;;5034684;28;20258;-87
2022/05/11 04:57:37;;;;;;;5.07;4.57;;;18.90;52.50;;;;;;5034704;28;20193;-86
2022/05/11 05:00:10;;;;;;;4.80;4.30;;;18.80;52.50;;;;;;5034152;28;20583;-85
2022/05/11 05:02:38;;;;;;;6.78;4.55;;;18.90;52.50;;;;;;5018307;28;20671;-87
2022/05/11 05:05:10;;;;;;;4.32;3.90;;;18.80;52.40;;;;;;5001817;28;20525;-86
2022/05/11 05:07:36;;;;;;;5.47;4.75;;;18.80;52.30;;;;;;5018451;28;20272;-85
2022/05/11 05:10:03;;;;;;;4.72;4.30;;;18.80;52.40;;;;;;5018622;28;20226;-88
2022/05/11 05:12:29;;;;;;;5.32;4.38;;;18.80;52.40;;;;;;5019023;28;20161;-86
2022/05/11 05:14:56;;;;;;;5.57;4.75;;;18.80;52.40;;;;;;5018719;28;20169;-85
2022/05/11 05:17:23;;;;;;;5.13;4.25;;;18.80;52.30;;;;;;5017796;28;20182;-86
2022/05/11 05:19:49;;;;;;;4.80;4.30;;;18.80;52.60;;;;;;5017726;28;20645;-86
2022/05/11 05:22:16;;;;;;;4.60;4.13;;;18.80;52.40;;;;;;5035243;28;20177;-86
2022/05/11 05:24:42;;;;;;;4.53;4.13;;;18.90;52.50;;;;;;5034144;28;20202;-86
2022/05/11 05:27:08;;;;;;;5.55;4.20;;;18.80;52.40;;;;;;5035205;28;20150;-86
2022/05/11 05:32:10;;;;;;;6.38;4.60;;;18.80;52.40;;;;;;5036755;28;20146;-86
2022/05/11 05:34:35;;;;;;;4.85;4.10;;;18.90;52.50;;;;;;5018550;28;20181;-86
2022/05/11 05:37:01;;;;;;;5.95;4.20;;;18.90;52.50;;;;;;5018830;28;20260;-86
2022/05/11 05:39:27;;;;;;;4.20;3.80;;;18.80;52.50;;;;;;5018515;28;20197;-87
2022/05/11 05:41:52;;;;;;;5.13;4.38;;;18.80;52.30;;;;;;5034939;28;20201;-86
2022/05/11 05:44:19;;;;;;;4.70;4.05;;;18.80;52.40;;;;;;5018774;28;20172;-85
2022/05/11 05:46:45;;;;;;;5.38;4.03;;;18.80;52.40;;;;;;5035036;28;20166;-86
2022/05/11 05:49:11;;;;;;;4.72;4.25;;;18.80;52.40;;;;;;5019293;28;20261;-85
2022/05/11 05:51:36;;;;;;;5.07;4.13;;;18.80;52.50;;;;;;5034926;28;20264;-86
2022/05/11 05:54:03;;;;;;;4.70;4.20;;;18.90;52.50;;;;;;5052612;28;20166;-85
2022/05/11 05:56:28;;;;;;;5.25;4.10;;;18.80;52.30;;;;;;5034663;28;20532;-85
2022/05/11 05:58:58;;;;;;;5.65;3.95;;;18.90;52.50;;;;;;5035158;28;20257;-88
2022/05/11 06:01:24;;;;;;;4.05;3.65;;;18.90;52.40;;;;;;5036333;28;20241;-87
2022/05/11 06:03:51;;;;;;;5.25;4.03;;;18.80;52.50;;;;;;5019495;28;20220;-86
2022/05/11 06:06:16;;;;;;;4.22;3.83;;;18.90;52.40;;;;;;5036179;28;20166;-85
2022/05/11 06:08:42;;;;;;;5.13;4.05;;;18.90;52.40;;;;;;5034945;28;20218;-88
2022/05/11 06:11:08;;;;;;;4.43;4.03;;;18.90;52.30;;;;;;5039558;28;20660;-85
2022/05/11 06:13:34;;;;;;;4.63;4.03;;;18.90;52.60;;;;;;5040237;28;20197;-86
2022/05/11 06:15:59;;;;;;;3.67;3.35;;;18.90;52.60;;;;;;5021761;28;20523;-86
2022/05/11 06:18:25;;;;;;;4.90;3.80;;;18.90;52.40;;;;;;5021550;28;20169;-85
2022/05/11 06:20:51;;;;;;;3.70;3.30;;;18.90;52.40;;;;;;5039930;28;20594;-86
2022/05/11 06:23:18;;;;;;;4.30;3.65;;;18.90;52.40;;;;;;5022436;28;20162;-88
2022/05/11 06:25:44;;;;;;;4.18;3.55;;;18.90;52.50;;;;;;5024313;28;20169;-87
2022/05/11 06:28:11;;;;;;;4.10;3.70;;;18.90;52.40;;;;;;5039134;28;20518;-86
2022/05/11 06:30:43;;;;;;;4.78;3.75;;;18.90;52.60;;;;;;5026957;28;20209;-88
2022/05/11 06:33:18;;;;;;;4.97;3.83;;;18.80;52.40;;;;;;5025504;28;20154;-87
2022/05/11 06:35:54;;;;;;;;;;;;;;;;;;;;;
2022/05/11 06:38:24;;;;;;;4.60;3.58;;;18.80;52.40;;;;;;5025775;28;20249;-89
2022/05/11 06:40:52;;;;;;;3.63;3.33;;;18.90;52.40;;;;;;5040622;28;20166;-88
2022/05/11 06:43:47;;;;;;;3.88;3.40;;;19.00;52.40;;;;;;5024034;28;20231;-89
2022/05/11 06:46:19;;;;;;;3.70;3.40;;;18.90;52.30;;;;;;5040839;28;20527;-89
2022/05/11 06:48:56;;;;;;;4.50;3.47;;;18.90;52.30;;;;;;5027155;28;20178;-88
2022/05/11 06:51:22;;;;;;;4.13;3.67;;;19.00;52.30;;;;;;5040480;28;20186;-89
2022/05/11 06:59:26;;;;;;;4.45;3.50;;;19.00;52.60;;;;;;5044501;28;20157;-87
2022/05/11 07:01:55;;;;;;;4.55;3.90;;;18.90;52.60;;;;;;5042027;28;20169;-85
2022/05/11 07:04:22;;;;;;;4.65;3.45;;;19.00;52.60;;;;;;5006248;28;20215;-85
2022/05/11 07:06:49;;;;;;;4.63;3.08;;;19.00;52.50;;;;;;5044039;28;20150;-86
2022/05/11 07:09:15;;;;;;;4.13;3.45;;;19.00;52.40;;;;;;5068857;28;20303;-86
2022/05/11 07:14:20;;;;;;;3.45;3.15;;;19.10;52.50;;;;;;5069387;28;20156;-85
2022/05/11 07:16:46;;;;;;;3.10;2.80;;;19.10;52.50;;;;;;5075373;28;20188;-85
2022/05/11 07:19:13;;;;;;;4.45;2.78;;;19.00;52.50;;;;;;5040286;28;20234;-85
2022/05/11 07:21:38;;;;;;;5.30;2.97;;;19.20;52.60;;;;;;5024948;28;20170;-85
2022/05/11 07:24:04;;;;;;;3.85;3.45;;;19.20;53.20;;;;;;5042547;28;20223;-85
2022/05/11 07:26:34;;;;;;;4.13;3.30;;;19.10;52.70;;;;;;5060564;28;20169;-85
2022/05/11 07:29:04;;;;;;;4.55;3.58;;;19.10;52.50;;;;;;5023017;28;20541;-86
2022/05/11 07:31:30;;;;;;;7.15;3.70;;;19.00;52.70;;;;;;5006874;28;20249;-85
2022/05/11 07:33:55;;;;;;;4.15;3.22;;;19.10;52.80;;;;;;5023584;28;20696;-85
2022/05/11 07:36:25;;;;;;;4.15;3.70;;;19.10;52.70;;;;;;5041691;28;20180;-84
2022/05/11 07:38:54;;;;;;;4.88;3.88;;;19.10;52.70;;;;;;5007112;28;20276;-85
2022/05/11 07:41:22;;;;;;;5.28;3.40;;;19.10;52.70;;;;;;5006803;28;20256;-84
2022/05/11 07:43:50;;;;;;;3.70;3.17;;;19.10;52.60;;;;;;5005865;28;20186;-86
2022/05/11 07:46:16;;;;;;;5.35;3.42;;;19.10;52.50;;;;;;5022801;28;20190;-85
2022/05/11 07:48:42;;;;;;;4.40;3.33;;;19.10;52.50;;;;;;5040099;28;20222;-85
2022/05/11 07:51:08;;;;;;;4.80;2.90;;;19.10;52.50;;;;;;5022364;28;20228;-84
2022/05/11 07:53:34;;;;;;;3.42;3.13;;;19.10;52.50;;;;;;5022457;28;20166;-85
2022/05/11 08:01:22;;;;;;;4.68;3.42;;;19.10;52.30;;;;;;5030866;28;20184;-86
2022/05/11 08:03:50;;;;;;;5.38;3.38;;;19.10;52.40;;;;;;5009489;28;20177;-85
2022/05/11 08:06:18;;;;;;;5.43;3.08;;;19.10;52.50;;;;;;5023415;28;20864;-86
2022/05/11 08:08:44;;;;;;;4.00;3.58;;;19.10;52.50;;;;;;4991456;28;20224;-85
2022/05/11 08:11:11;;;;;;;4.32;3.33;;;19.20;52.50;;;;;;5025416;28;20201;-85
2022/05/11 08:13:37;;;;;;;3.78;3.38;;;19.20;52.50;;;;;;5040029;28;20192;-85
2022/05/11 08:16:03;;;;;;;7.30;3.67;;;19.20;52.40;;;;;;5041470;28;20150;-86
2022/05/11 08:18:29;;;;;;;6.80;3.28;;;19.20;52.30;;;;;;5041457;28;20170;-85
2022/05/11 08:20:55;;;;;;;5.57;3.25;;;19.20;52.40;;;;;;5041517;28;20238;-86
2022/05/11 08:23:28;;;;;;;7.93;3.95;;;19.20;52.50;;;;;;5025932;28;20528;-85
2022/05/11 08:25:57;;;;;;;7.43;3.90;;;19.20;52.50;;;;;;5025086;28;20587;-86
2022/05/11 08:28:23;;;;;;;8.57;3.63;;;19.20;52.70;;;;;;5048372;28;20175;-86
2022/05/11 08:33:39;;;;;;;10.80;3.65;;;19.10;52.50;;;;;;5069438;28;20149;-84
2022/05/11 08:36:21;;;;;;;9.25;3.53;;;19.20;52.50;;;;;;5080918;28;20149;-85
2022/05/11 08:39:05;;;;;;;;;;;;;;;;;;;;;
2022/05/11 08:41:53;;;;;;;14.10;3.78;;;19.30;52.50;;;;;;5045922;28;20259;-85
2022/05/11 08:44:32;;;;;;;10.30;3.72;;;19.20;52.60;;;;;;5065283;28;20168;-85
2022/05/11 08:48:00;;;;;;;11.93;3.55;;;19.20;52.50;;;;;;5067224;28;20148;-85
2022/05/11 08:50:12;;;;;;;17.67;4.38;;;19.20;52.50;;;;;;5060104;28;20203;-85
2022/05/11 08:52:58;;;;;;;16.85;3.88;;;19.20;52.80;;;;;;5064211;28;20547;-83
2022/05/11 08:56:31;;;;;;;6.18;3.38;;;19.20;52.50;;;;;;5023125;28;20202;-84
2022/05/11 08:59:24;;;;;;;7.63;3.97;;;19.20;52.60;;;;;;5021084;28;20185;-85
2022/05/11 09:02:19;;;;;;;6.38;3.15;;;19.20;52.70;;;;;;5022266;28;20349;-85
2022/05/11 09:04:54;;;;;;;9.57;3.30;;;19.30;52.40;;;;;;4998622;28;20182;-85
2022/05/11 09:07:20;;;;;;;7.40;3.45;;;19.30;52.50;;;;;;5019008;28;20185;-85
2022/05/11 09:09:47;;;;;;;8.15;3.72;;;19.40;52.40;;;;;;5029379;28;20736;-86
2022/05/11 09:12:26;;;;;;;8.57;3.38;;;19.30;52.70;;;;;;5019697;28;20210;-85
2022/05/11 09:15:03;;;;;;;8.35;3.65;;;19.30;52.50;;;;;;4971536;28;20561;-85
2022/05/11 09:17:31;;;;;;;9.38;3.22;;;19.30;52.90;;;;;;4983348;28;20163;-85
2022/05/11 09:20:19;;;;;;;7.93;3.60;;;19.30;52.60;;;;;;5002315;28;20183;-86
2022/05/11 09:23:07;;;;;;;8.55;3.88;;;19.30;52.50;;;;;;5043468;28;20623;-85
2022/05/11 09:25:45;;;;;;;8.15;3.53;;;19.30;52.50;;;;;;5002482;28;20560;-85
2022/05/11 09:28:26;;;;;;;7.13;3.20;;;19.30;52.50;;;;;;4979019;28;20272;-84
2022/05/11 09:31:05;;;;;;;7.40;3.85;;;19.30;52.50;;;;;;5037916;28;20189;-84
2022/05/11 09:33:38;;;;;;;6.68;3.63;;;19.40;52.80;;;;;;5038908;28;20281;-85
2022/05/11 09:36:04;;;;;;;5.25;3.47;;;19.30;52.70;;;;;;4989115;28;20189;-84
2022/05/11 09:38:35;;;;;;;6.38;3.42;;;19.20;52.60;;;;;;5020859;28;20158;-86
2022/05/11 09:41:22;;;;;;;8.65;3.30;;;19.20;52.60;;;;;;5038790;28;20159;-85
2022/05/11 09:43:54;;;;;;;8.13;3.55;;;19.20;52.60;;;;;;5020161;28;20202;-86
2022/05/11 09:46:29;;;;;;;5.95;3.50;;;19.20;52.70;;;;;;5027012;28;20186;-86
2022/05/11 09:49:05;;;;;;;6.63;3.70;;;19.20;52.70;;;;;;5019661;28;20228;-85
2022/05/11 09:52:12;;;;;;;;;;;;;;;;;;;;;
2022/05/11 09:54:55;;;;;;;6.57;3.50;;;19.20;52.80;;;;;;5019513;28;20175;-85
2022/05/11 09:57:27;;;;;;;7.10;3.22;;;19.20;52.60;;;;;;5001795;28;20552;-85
2022/05/11 10:00:15;;;;;;;6.05;3.63;;;19.20;52.50;;;;;;4969649;28;20637;-85
2022/05/11 10:02:48;;;;;;;4.28;3.35;;;19.20;52.30;;;;;;5019531;28;21060;-85
2022/05/11 10:05:28;;;;;;;4.72;3.60;;;19.30;52.30;;;;;;5001789;28;20201;-86
2022/05/11 10:08:25;;;;;;;4.55;3.20;;;19.30;52.20;;;;;;5001945;28;20206;-85
2022/05/11 10:11:04;;;;;;;4.05;2.70;;;19.30;52.00;;;;;;4962573;28;20277;-85
2022/05/11 10:13:35;;;;;;;6.50;3.65;;;19.30;51.60;;;;;;4982322;28;20190;-86
2022/05/11 10:21:54;;;;;;;3.92;3.08;;;19.30;51.80;;;;;;5001985;28;20526;-86
2022/05/11 10:24:43;;;;;;;5.78;3.05;;;19.30;51.70;;;;;;5021040;28;20155;-88
2022/05/11 10:27:45;;;;;;;4.78;2.97;;;19.40;51.40;;;;;;5021121;28;20166;-86
2022/05/11 10:30:25;;;;;;;6.70;3.45;;;19.40;51.40;;;;;;5035795;28;20198;-85
2022/05/11 10:33:19;;;;;;;5.72;3.53;;;19.40;51.40;;;;;;5019827;28;20166;-85
2022/05/11 10:35:54;;;;;;;6.35;3.60;;;19.40;51.50;;;;;;5018645;28;20155;-87
2022/05/11 10:38:33;;;;;;;6.90;3.38;;;19.30;51.30;;;;;;5002445;28;20170;-87
2022/05/11 10:41:20;;;;;;;5.53;3.08;;;19.40;51.20;;;;;;5018657;28;20155;-89
2022/05/11 10:43:58;;;;;;;4.25;3.30;;;19.30;51.30;;;;;;5034706;28;20238;-86
2022/05/11 10:46:35;;;;;;;6.57;3.70;;;19.30;51.20;;;;;;5000639;28;20661;-87
2022/05/11 10:49:35;;;;;;;4.65;3.10;;;19.40;51.30;;;;;;5018678;28;20170;-88
2022/05/11 10:52:19;;;;;;;3.72;3.20;;;19.30;51.30;;;;;;5022261;28;20198;-87
2022/05/11 10:55:36;;;;;;;3.33;2.85;;;19.30;51.40;;;;;;4988184;28;20669;-87
2022/05/11 10:58:14;;;;;;;4.07;2.92;;;19.30;51.30;;;;;;4992637;28;20188;-88
2022/05/11 11:00:44;;;;;;;3.42;3.10;;;19.40;51.50;;;;;;4981777;28;20720;-88
2022/05/11 11:03:33;;;;;;;3.85;3.08;;;19.30;51.30;;;;;;4997219;28;20769;-87
2022/05/11 11:07:40;;;;;;;3.72;3.20;;;19.30;51.10;;;;;;4980827;28;20187;-88
2022/05/11 11:09:38;;;;;;;5.18;3.00;;;19.40;51.20;;;;;;5003808;28;20345;-89
2022/05/11 11:12:35;;;;;;;5.03;3.22;;;19.40;51.10;;;;;;4980684;28;20214;-87
2022/05/11 11:15:05;;;;;;;4.78;3.20;;;19.40;50.90;;;;;;4982930;28;20193;-87
2022/05/11 11:17:31;;;;;;;3.45;2.92;;;19.40;50.80;;;;;;4966569;28;20187;-86
2022/05/11 11:20:00;;;;;;;3.53;3.20;;;19.50;50.90;;;;;;5014220;28;20167;-87
2022/05/11 11:22:26;;;;;;;3.53;3.22;;;19.40;51.00;;;;;;4981499;28;20206;-87
2022/05/11 11:25:22;;;;;;;4.43;3.53;;;19.40;50.90;;;;;;4999635;28;20171;-87
2022/05/11 11:28:13;;;;;;;3.80;3.42;;;19.50;51.10;;;;;;4998663;28;20168;-88
2022/05/11 11:30:43;;;;;;;4.68;3.05;;;19.40;51.00;;;;;;4998120;28;20202;-88
2022/05/11 11:33:12;;;;;;;4.18;3.30;;;19.40;50.90;;;;;;4994694;28;20208;-88
2022/05/11 11:36:05;;;;;;;4.13;3.55;;;19.40;50.90;;;;;;5013515;28;20156;-86
2022/05/11 11:38:39;;;;;;;5.88;3.35;;;19.40;50.90;;;;;;5000732;28;20176;-86
2022/05/11 11:41:17;;;;;;;3.70;3.35;;;19.40;51.00;;;;;;5019161;28;20175;-86
2022/05/11 11:43:53;;;;;;;4.15;3.03;;;19.40;51.10;;;;;;5005046;28;20662;-85
2022/05/11 11:46:40;;;;;;;3.75;3.42;;;19.40;51.20;;;;;;5019133;28;20167;-85
2022/05/11 11:49:43;;;;;;;4.00;3.45;;;19.40;51.20;;;;;;4971964;28;20186;-86
2022/05/11 11:52:32;;;;;;;4.18;3.55;;;19.50;51.20;;;;;;5025664;28;20187;-88
2022/05/11 11:55:25;;;;;;;5.28;3.30;;;19.40;51.20;;;;;;5027850;28;20262;-88
2022/05/11 11:58:30;;;;;;;4.32;3.00;;;19.40;51.00;;;;;;4966316;28;20185;-88
2022/05/11 12:01:38;;;;;;;4.32;2.88;;;19.30;51.00;;;;;;4864288;29;20184;-87
2022/05/11 12:04:33;;;;;;;3.95;3.22;;;19.40;51.20;;;;;;4828852;29;20186;-89
2022/05/11 12:15:38;;;;;;;4.45;3.20;;;19.50;51.40;;;;;;4924453;29;20213;-88
2022/05/11 12:18:48;;;;;;;;;;;;;;;;;;;;;
2022/05/11 12:22:01;;;;;;;;;;;;;;;;;;;;;
2022/05/11 12:24:40;;;;;;;5.25;3.30;;;19.50;51.30;;;;;;4828527;29;20193;-88
2022/05/11 12:27:23;;;;;;;4.32;3.00;;;19.40;51.30;;;;;;4826988;29;20665;-87
2022/05/11 12:30:36;;;;;;;;;;;;;;;;;;;;;
2022/05/11 12:33:24;;;;;;;3.50;2.97;;;19.50;51.30;;;;;;4829310;29;20624;-87
2022/05/11 12:36:16;;;;;;;;;;;;;;;;;;;;;
2022/05/11 12:38:54;;;;;;;3.13;2.80;;;19.40;51.20;;;;;;4866663;29;20194;-88
2022/05/11 12:41:33;;;;;;;3.20;2.90;;;19.50;51.10;;;;;;4882891;29;20422;-88
2022/05/11 12:45:07;;;;;;;;;;;;;;;;;;;;;
2022/05/11 12:48:51;;;;;;;3.85;2.80;;;19.50;51.10;;;;;;4878895;29;20354;-89
2022/05/11 12:51:33;;;;;;;3.17;2.88;;;19.50;51.60;;;;;;4843869;29;20270;-89
2022/05/11 14:39:11;;;;;;;3.20;2.90;;;19.70;49.80;;;;;;5074469;28;20227;-85
2022/05/11 14:41:37;;;;;;;4.43;3.47;;;19.60;50.00;;;;;;5008042;28;20174;-85
2022/05/11 14:44:03;;;;;;;3.15;2.85;;;19.60;50.10;;;;;;5009217;28;20636;-85
2022/05/11 14:46:30;;;;;;;2.97;2.75;;;19.60;49.70;;;;;;5008764;28;20165;-86
2022/05/11 14:48:58;;;;;;;5.97;3.30;;;19.60;49.20;;;;;;5022548;28;20162;-87
2022/05/11 14:52:00;;;;;;;3.72;3.10;;;19.80;49.30;;;;;;5007727;28;20193;-86
2022/05/11 14:54:27;;;;;;;3.33;3.00;;;19.70;48.70;;;;;;4985263;28;20283;-85
2022/05/11 15:02:12;;;;;;;3.30;3.00;;;19.60;49.10;;;;;;4938151;29;20180;-85
2022/05/11 15:04:40;;;;;;;2.85;2.58;;;19.60;49.40;;;;;;4922769;29;20170;-85
2022/05/11 15:07:08;;;;;;;3.47;2.67;;;19.50;49.10;;;;;;4938016;29;20209;-85
2022/05/11 15:09:33;;;;;;;3.40;3.10;;;19.50;49.10;;;;;;4937923;29;20264;-84
2022/05/11 15:14:43;;;;;;;3.15;2.83;;;19.50;49.40;;;;;;4938130;29;20258;-84
2022/05/11 15:17:12;;;;;;;3.28;2.72;;;19.50;49.40;;;;;;4921988;28;20184;-84
2022/05/11 15:19:42;;;;;;;3.35;3.05;;;19.50;49.40;;;;;;4963802;28;20318;-85
2022/05/11 15:22:11;;;;;;;3.67;3.28;;;19.50;49.40;;;;;;4959683;28;20209;-84
2022/05/11 15:24:37;;;;;;;3.45;3.10;;;19.50;49.50;;;;;;4923115;28;20252;-84
2022/05/11 15:27:02;;;;;;;4.45;3.13;;;19.50;49.60;;;;;;4948184;28;20191;-84
2022/05/11 15:29:31;;;;;;;3.35;3.05;;;19.60;49.80;;;;;;4961905;28;20552;-84
2022/05/11 15:32:00;;;;;;;3.85;3.08;;;19.50;49.60;;;;;;4961762;28;20303;-85
2022/05/11 15:34:29;;;;;;;2.78;2.58;;;19.50;49.60;;;;;;4981801;28;20183;-84
2022/05/11 15:36:59;;;;;;;4.75;2.70;;;19.50;49.60;;;;;;4949163;28;20184;-84
2022/05/11 15:39:26;;;;;;;5.30;3.03;;;19.60;49.80;;;;;;4968964;28;20295;-85
2022/05/11 15:41:54;;;;;;;6.25;3.38;;;19.50;50.00;;;;;;4969510;28;20210;-84
2022/05/11 15:44:24;;;;;;;3.20;2.90;;;19.60;50.40;;;;;;4967265;28;20276;-84
2022/05/11 15:46:52;;;;;;;3.58;2.67;;;19.60;50.40;;;;;;4986438;28;20183;-85
2022/05/11 15:49:19;;;;;;;4.60;2.78;;;19.60;50.60;;;;;;5001984;28;20278;-84
2022/05/11 15:51:50;;;;;;;4.53;3.20;;;19.50;50.70;;;;;;5006476;28;20273;-84
2022/05/11 15:54:19;;;;;;;4.18;3.03;;;19.60;50.90;;;;;;5043057;28;20182;-85
2022/05/11 15:56:49;;;;;;;3.47;2.70;;;19.60;51.10;;;;;;5028395;28;20178;-85
2022/05/11 15:59:20;;;;;;;5.38;3.10;;;19.60;51.20;;;;;;5025018;28;20178;-85
2022/05/11 16:01:49;;;;;;;3.72;3.00;;;19.60;51.50;;;;;;5026264;28;20223;-84